UAE245 LWSK-LBSF
Flight info
| Callsign | UAE245 |
|---|---|
| Flight time | 0h 25m |
| Altitude | 17000 |
| Route | RAXAD VAGEN NISVA NISV3K |
| Aircraft | A333/H-VGD/A |
Departure
| Time | 2026-04-25 17:29 |
|---|---|
| Airport | Skopje International Airport (LWSK) |
Arrival
| Time | 2026-04-25 17:55 |
|---|---|
| Airport | Sofia Airport (LBSF) |
| Time | Latitude | Longitude | Altitude | Speed | Heading |
|---|---|---|---|---|---|
| 2026-04-25 17:24 | 41.96105 | 21.62585 | 797 ft | 0 kts | 70° |
| 2026-04-25 17:26 | 41.96109 | 21.62590 | 797 ft | 2 kts | 39° |
| 2026-04-25 17:26 | 41.96119 | 21.62553 | 796 ft | 11 kts | 228° |
| 2026-04-25 17:27 | 41.96034 | 21.62516 | 794 ft | 13 kts | 211° |
| 2026-04-25 17:27 | 41.95848 | 21.62521 | 791 ft | 30 kts | 167° |
| 2026-04-25 17:27 | 41.95700 | 21.62610 | 790 ft | 38 kts | 158° |
| 2026-04-25 17:27 | 41.95513 | 21.62659 | 788 ft | 44 kts | 193° |
| 2026-04-25 17:28 | 41.95137 | 21.62598 | 783 ft | 29 kts | 213° |
| 2026-04-25 17:28 | 41.95192 | 21.62480 | 781 ft | 12 kts | 340° |
| 2026-04-25 17:28 | 41.95206 | 21.62475 | 781 ft | 1 kts | 345° |
| 2026-04-25 17:28 | 41.95381 | 21.62414 | 781 ft | 63 kts | 346° |
| 2026-04-25 17:29 | 41.96075 | 21.62173 | 787 ft | 140 kts | 348° |
| 2026-04-25 17:29 | 41.97234 | 21.61754 | 805 ft | 200 kts | 336° |
| 2026-04-25 17:29 | 41.98483 | 21.61105 | 1753 ft | 190 kts | 327° |
| 2026-04-25 17:29 | 41.99748 | 21.60196 | 2301 ft | 225 kts | 336° |
| 2026-04-25 17:30 | 42.01767 | 21.59706 | 3993 ft | 230 kts | 12° |
| 2026-04-25 17:30 | 42.03143 | 21.60629 | 5311 ft | 230 kts | 44° |
| 2026-04-25 17:30 | 42.03742 | 21.61749 | 6146 ft | 231 kts | 66° |
| 2026-04-25 17:30 | 42.03967 | 21.63837 | 7314 ft | 235 kts | 96° |
| 2026-04-25 17:31 | 42.03639 | 21.65949 | 8324 ft | 240 kts | 101° |
| 2026-04-25 17:31 | 42.03199 | 21.68889 | 9634 ft | 246 kts | 89° |
| 2026-04-25 17:31 | 42.03583 | 21.71070 | 10550 ft | 247 kts | 57° |
| 2026-04-25 17:31 | 42.04695 | 21.72787 | 11473 ft | 248 kts | 41° |
| 2026-04-25 17:32 | 42.05547 | 21.73838 | 12071 ft | 252 kts | 40° |
| 2026-04-25 17:32 | 42.06762 | 21.75554 | 12906 ft | 260 kts | 50° |
| 2026-04-25 17:32 | 42.07782 | 21.77566 | 13744 ft | 267 kts | 56° |
| 2026-04-25 17:32 | 42.08744 | 21.79707 | 14575 ft | 272 kts | 58° |
| 2026-04-25 17:33 | 42.09681 | 21.81912 | 15433 ft | 276 kts | 58° |
| 2026-04-25 17:33 | 42.10632 | 21.84147 | 16245 ft | 282 kts | 58° |
| 2026-04-25 17:33 | 42.11609 | 21.86450 | 16976 ft | 289 kts | 58° |
| 2026-04-25 17:33 | 42.12694 | 21.88890 | 17023 ft | 322 kts | 56° |
| 2026-04-25 17:34 | 42.14379 | 21.92492 | 17070 ft | 357 kts | 56° |
| 2026-04-25 17:34 | 42.15761 | 21.95416 | 17051 ft | 381 kts | 56° |
| 2026-04-25 17:34 | 42.16717 | 21.97430 | 17040 ft | 396 kts | 56° |
| 2026-04-25 17:34 | 42.18230 | 22.00614 | 17047 ft | 410 kts | 56° |
| 2026-04-25 17:35 | 42.19810 | 22.03833 | 17017 ft | 405 kts | 51° |
| 2026-04-25 17:35 | 42.21803 | 22.06395 | 17021 ft | 396 kts | 36° |
| 2026-04-25 17:35 | 42.23989 | 22.08672 | 17046 ft | 396 kts | 36° |
| 2026-04-25 17:35 | 42.26149 | 22.10928 | 17033 ft | 395 kts | 36° |
| 2026-04-25 17:36 | 42.29056 | 22.13967 | 17039 ft | 395 kts | 36° |
| 2026-04-25 17:36 | 42.30489 | 22.15468 | 17042 ft | 395 kts | 36° |
| 2026-04-25 17:36 | 42.32659 | 22.17748 | 17048 ft | 396 kts | 36° |
| 2026-04-25 17:36 | 42.34934 | 22.19755 | 17027 ft | 394 kts | 23° |
| 2026-04-25 17:37 | 42.37584 | 22.20702 | 17042 ft | 391 kts | 4° |
| 2026-04-25 17:37 | 42.40278 | 22.20481 | 17059 ft | 390 kts | 351° |
| 2026-04-25 17:37 | 42.42977 | 22.19920 | 17054 ft | 392 kts | 351° |
| 2026-04-25 17:37 | 42.45654 | 22.19367 | 17040 ft | 391 kts | 351° |
| 2026-04-25 17:38 | 42.49223 | 22.18606 | 17050 ft | 390 kts | 349° |
| 2026-04-25 17:38 | 42.50086 | 22.18347 | 17050 ft | 390 kts | 346° |
| 2026-04-25 17:38 | 42.53606 | 22.17161 | 17057 ft | 390 kts | 346° |
| 2026-04-25 17:38 | 42.56254 | 22.16320 | 17051 ft | 389 kts | 350° |
| 2026-04-25 17:39 | 42.58964 | 22.16308 | 17042 ft | 390 kts | 5° |
| 2026-04-25 17:39 | 42.61647 | 22.16737 | 17068 ft | 391 kts | 6° |
| 2026-04-25 17:39 | 42.65252 | 22.17205 | 17055 ft | 390 kts | 1° |
| 2026-04-25 17:39 | 42.67075 | 22.17266 | 17064 ft | 391 kts | 1° |
| 2026-04-25 17:40 | 42.69776 | 22.17372 | 17063 ft | 390 kts | 1° |
| 2026-04-25 17:40 | 42.72492 | 22.17628 | 17049 ft | 391 kts | 9° |
| 2026-04-25 17:40 | 42.75046 | 22.18870 | 17045 ft | 394 kts | 27° |
| 2026-04-25 17:40 | 42.77196 | 22.21227 | 17057 ft | 398 kts | 46° |
| 2026-04-25 17:41 | 42.78662 | 22.24384 | 17052 ft | 402 kts | 65° |
| 2026-04-25 17:41 | 42.79481 | 22.28030 | 17068 ft | 405 kts | 75° |
| 2026-04-25 17:41 | 42.80031 | 22.31794 | 17054 ft | 405 kts | 77° |
| 2026-04-25 17:41 | 42.80756 | 22.36805 | 17053 ft | 405 kts | 77° |
| 2026-04-25 17:42 | 42.81071 | 22.39278 | 17057 ft | 405 kts | 78° |
| 2026-04-25 17:42 | 42.81560 | 22.43059 | 17062 ft | 404 kts | 74° |
| 2026-04-25 17:42 | 42.82421 | 22.46667 | 17010 ft | 395 kts | 68° |
| 2026-04-25 17:42 | 42.83878 | 22.50968 | 16285 ft | 362 kts | 58° |
| 2026-04-25 17:43 | 42.84656 | 22.52929 | 15678 ft | 356 kts | 58° |
| 2026-04-25 17:43 | 42.85861 | 22.55801 | 14537 ft | 359 kts | 56° |
| 2026-04-25 17:43 | 42.87201 | 22.58694 | 13001 ft | 372 kts | 55° |
| 2026-04-25 17:43 | 42.88613 | 22.61625 | 11562 ft | 378 kts | 53° |
| 2026-04-25 17:44 | 42.90063 | 22.64580 | 10442 ft | 373 kts | 53° |
| 2026-04-25 17:44 | 42.91486 | 22.67408 | 9750 ft | 356 kts | 54° |
| 2026-04-25 17:44 | 42.92820 | 22.70121 | 9499 ft | 332 kts | 54° |
| 2026-04-25 17:44 | 42.93946 | 22.72518 | 11053 ft | 285 kts | 56° |
| 2026-04-25 17:45 | 42.94964 | 22.74969 | 10899 ft | 313 kts | 63° |
| 2026-04-25 17:45 | 42.95390 | 22.76880 | 10589 ft | 319 kts | 80° |
| 2026-04-25 17:45 | 42.95123 | 22.80837 | 10004 ft | 316 kts | 108° |
| 2026-04-25 17:45 | 42.93878 | 22.84418 | 9722 ft | 312 kts | 114° |
| 2026-04-25 17:46 | 42.93268 | 22.86209 | 9721 ft | 308 kts | 112° |
| 2026-04-25 17:46 | 42.92181 | 22.88603 | 9666 ft | 294 kts | 131° |
| 2026-04-25 17:46 | 42.90588 | 22.90237 | 9647 ft | 285 kts | 158° |
| 2026-04-25 17:46 | 42.88717 | 22.91141 | 9587 ft | 287 kts | 160° |
| 2026-04-25 17:47 | 42.86849 | 22.91994 | 9649 ft | 281 kts | 160° |
| 2026-04-25 17:47 | 42.84980 | 22.92831 | 9913 ft | 285 kts | 161° |
| 2026-04-25 17:47 | 42.83065 | 22.93615 | 10184 ft | 288 kts | 162° |
| 2026-04-25 17:47 | 42.81156 | 22.94360 | 10446 ft | 284 kts | 164° |
| 2026-04-25 17:48 | 42.77285 | 22.95124 | 10326 ft | 279 kts | 177° |
| 2026-04-25 17:48 | 42.75372 | 22.95246 | 10065 ft | 276 kts | 175° |
| 2026-04-25 17:48 | 42.73470 | 22.95521 | 9786 ft | 275 kts | 172° |
| 2026-04-25 17:49 | 42.71598 | 22.95924 | 9389 ft | 270 kts | 162° |
| 2026-04-25 17:49 | 42.69921 | 22.97013 | 8977 ft | 267 kts | 136° |
| 2026-04-25 17:49 | 42.68920 | 22.99057 | 8544 ft | 263 kts | 99° |
| 2026-04-25 17:49 | 42.68891 | 23.01526 | 8071 ft | 267 kts | 82° |
| 2026-04-25 17:50 | 42.68924 | 23.04878 | 7434 ft | 268 kts | 84° |
| 2026-04-25 17:50 | 42.68996 | 23.06576 | 7105 ft | 267 kts | 83° |
| 2026-04-25 17:50 | 42.69240 | 23.09054 | 6552 ft | 269 kts | 77° |
| 2026-04-25 17:50 | 42.69576 | 23.11558 | 5879 ft | 272 kts | 75° |
| 2026-04-25 17:51 | 42.69984 | 23.14062 | 5118 ft | 271 kts | 76° |
| 2026-04-25 17:51 | 42.70430 | 23.16475 | 4376 ft | 263 kts | 74° |
| 2026-04-25 17:51 | 42.70791 | 23.18865 | 3661 ft | 253 kts | 81° |
| 2026-04-25 17:51 | 42.70893 | 23.21125 | 3158 ft | 226 kts | 89° |
| 2026-04-25 17:52 | 42.70811 | 23.23152 | 2786 ft | 208 kts | 91° |
| 2026-04-25 17:52 | 42.70706 | 23.24462 | 2699 ft | 214 kts | 92° |
| 2026-04-25 17:52 | 42.70509 | 23.27172 | 2888 ft | 207 kts | 88° |
| 2026-04-25 17:52 | 42.70375 | 23.29593 | 2954 ft | 176 kts | 94° |
| 2026-04-25 17:53 | 42.70300 | 23.30669 | 2999 ft | 174 kts | 94° |
| 2026-04-25 17:53 | 42.70184 | 23.32273 | 2774 ft | 169 kts | 89° |
| 2026-04-25 17:53 | 42.70097 | 23.33906 | 2450 ft | 179 kts | 88° |
| 2026-04-25 17:53 | 42.69974 | 23.36132 | 2203 ft | 170 kts | 91° |
| 2026-04-25 17:54 | 42.69906 | 23.37169 | 2100 ft | 163 kts | 90° |
| 2026-04-25 17:54 | 42.69817 | 23.38676 | 1936 ft | 160 kts | 92° |
| 2026-04-25 17:54 | 42.69734 | 23.40209 | 1818 ft | 165 kts | 89° |
| 2026-04-25 17:54 | 42.69653 | 23.41657 | 1756 ft | 141 kts | 91° |
| 2026-04-25 17:55 | 42.69585 | 23.42755 | 1751 ft | 88 kts | 94° |
| 2026-04-25 17:55 | 42.69550 | 23.43353 | 1758 ft | 41 kts | 92° |
| 2026-04-25 17:55 | 42.69526 | 23.43739 | 1762 ft | 42 kts | 94° |
| 2026-04-25 17:55 | 42.69445 | 23.43948 | 1762 ft | 16 kts | 180° |
| 2026-04-25 17:56 | 42.69348 | 23.43909 | 1762 ft | 13 kts | 232° |
| 2026-04-25 17:56 | 42.69333 | 23.43793 | 1762 ft | 14 kts | 271° |
| 2026-04-25 17:56 | 42.69346 | 23.43613 | 1762 ft | 23 kts | 267° |
| 2026-04-25 17:56 | 42.69356 | 23.43364 | 1759 ft | 27 kts | 273° |
| 2026-04-25 17:57 | 42.69371 | 23.43002 | 1755 ft | 29 kts | 275° |
| 2026-04-25 17:57 | 42.69385 | 23.42818 | 1754 ft | 28 kts | 280° |
| 2026-04-25 17:57 | 42.69405 | 23.42555 | 1756 ft | 27 kts | 274° |
| 2026-04-25 17:57 | 42.69355 | 23.42427 | 1758 ft | 23 kts | 199° |
| 2026-04-25 17:58 | 42.69210 | 23.42263 | 1757 ft | 21 kts | 248° |
| 2026-04-25 17:58 | 42.69170 | 23.42055 | 1754 ft | 25 kts | 255° |
| 2026-04-25 17:58 | 42.69109 | 23.41791 | 1751 ft | 32 kts | 253° |
| 2026-04-25 17:58 | 42.69107 | 23.41584 | 1753 ft | 12 kts | 301° |
| 2026-04-25 17:59 | 42.69152 | 23.41525 | 1757 ft | 6 kts | 313° |
| 2026-04-25 17:59 | 42.69151 | 23.41498 | 1758 ft | 2 kts | 237° |
| 2026-04-25 17:59 | 42.69144 | 23.41482 | 1758 ft | 1 kts | 246° |
| 2026-04-25 17:59 | 42.69142 | 23.41476 | 1758 ft | 1 kts | 252° |
| 2026-04-25 18:00 | 42.69134 | 23.41443 | 1759 ft | 0 kts | 252° |
| 2026-04-25 18:00 | 42.69134 | 23.41442 | 1759 ft | 0 kts | 253° |